Time;durP1;ratioP1;P1;durP2;ratioP2;P2;SDS_P1;SDS_P2;PMS_P1;PMS_P2;Temp;Humidity;BMP_temperature;BMP_pressure;BME280_temperature;BME280_humidity;BME280_pressure;Samples;Min_cycle;Max_cycle;Signal;HPM_P1;HPM_P2
2023/08/12 00:00:49;;;;;;;6.43;4.17;;;;;;;22.52;74.30;100487.06;5105256;28;20673;-62
2023/08/12 00:03:15;;;;;;;6.00;4.27;;;;;;;22.52;74.04;100484.19;5108460;28;20696;-63
2023/08/12 00:05:42;;;;;;;6.23;4.40;;;;;;;22.53;74.43;100480.06;5091464;28;20424;-62
2023/08/12 00:08:08;;;;;;;5.97;4.23;;;;;;;22.52;73.95;100479.22;5089286;28;20155;-62
2023/08/12 00:10:33;;;;;;;6.60;4.57;;;;;;;22.53;74.21;100485.81;5089036;28;20412;-61
2023/08/12 00:12:59;;;;;;;4.73;3.93;;;;;;;22.53;73.45;100483.75;5073391;28;20224;-62
2023/08/12 00:15:24;;;;;;;5.50;4.27;;;;;;;22.52;74.10;100479.22;5089355;28;20181;-62
2023/08/12 00:17:50;;;;;;;6.60;4.40;;;;;;;22.52;73.96;100481.31;5089007;28;20226;-62
2023/08/12 00:20:15;;;;;;;5.00;4.17;;;;;;;22.52;73.87;100482.13;5104295;27;20565;-62
2023/08/12 00:22:41;;;;;;;6.63;4.07;;;;;;;22.52;74.11;100475.56;5106546;27;20648;-63
2023/08/12 00:25:06;;;;;;;4.87;3.70;;;;;;;22.52;74.10;100467.72;5100635;28;20193;-61
2023/08/12 00:27:32;;;;;;;5.03;4.07;;;;;;;22.52;73.95;100467.72;5105437;28;20174;-62
2023/08/12 00:29:57;;;;;;;10.30;4.40;;;;;;;22.52;74.00;100459.09;5089121;28;20181;-62
2023/08/12 00:32:23;;;;;;;5.80;4.07;;;;;;;22.53;74.12;100468.56;5087879;28;20162;-62
2023/08/12 00:34:48;;;;;;;5.60;3.70;;;;;;;22.52;73.75;100473.47;5090063;28;20185;-62
2023/08/12 00:37:14;;;;;;;8.37;4.33;;;;;;;22.53;73.78;100465.69;5087718;28;20178;-62
2023/08/12 00:39:39;;;;;;;7.30;4.10;;;;;;;22.53;74.15;100471.44;5087974;28;20150;-62
2023/08/12 00:42:05;;;;;;;7.00;4.40;;;;;;;22.53;74.16;100472.25;5088782;28;20195;-62
2023/08/12 00:44:30;;;;;;;5.20;3.70;;;;;;;22.53;73.55;100474.31;5102903;28;20181;-63
2023/08/12 00:46:56;;;;;;;6.80;3.60;;;;;;;22.53;73.84;100477.19;5108881;28;20176;-62
2023/08/12 00:49:22;;;;;;;4.70;3.70;;;;;;;22.53;73.78;100480.88;5102758;27;20198;-62
2023/08/12 00:51:49;;;;;;;4.27;3.50;;;;;;;22.52;73.98;100479.22;5088540;28;20181;-62
2023/08/12 00:54:15;;;;;;;6.00;3.80;;;;;;;22.53;73.90;100478.00;5091538;28;20427;-62
2023/08/12 00:56:40;;;;;;;5.57;3.87;;;;;;;22.53;73.84;100477.19;5090126;28;20400;-62
2023/08/12 00:59:07;;;;;;;7.60;4.00;;;;;;;22.53;74.03;100483.75;5096685;28;20260;-63
2023/08/12 01:01:33;;;;;;;5.50;3.77;;;;;;;22.54;73.56;100484.59;5088161;28;20229;-62
2023/08/12 01:03:59;;;;;;;5.70;4.60;;;;;;;22.53;73.99;100478.00;5070208;28;20834;-62
2023/08/12 01:06:24;;;;;;;5.00;3.93;;;;;;;22.53;73.77;100475.13;5098432;28;20408;-61
2023/08/12 01:08:50;;;;;;;5.27;3.87;;;;;;;22.53;73.84;100471.44;5075468;28;20174;-62
2023/08/12 01:11:44;;;;;;;13.03;4.27;;;;;;;22.54;73.96;100473.09;5108819;28;20158;-62
2023/08/12 01:14:17;;;;;;;5.17;3.80;;;;;;;22.53;73.99;100478.00;5086814;28;20269;-62
2023/08/12 01:16:45;;;;;;;6.00;4.00;;;;;;;22.54;73.76;100479.66;5090219;28;20467;-62
2023/08/12 01:19:21;;;;;;;5.90;3.60;;;;;;;22.54;74.01;100478.84;5082225;28;20443;-62
2023/08/12 01:21:46;;;;;;;4.40;3.43;;;;;;;22.54;73.88;100479.66;5096405;28;20438;-63
2023/08/12 01:24:12;;;;;;;5.03;3.30;;;;;;;22.54;73.91;100484.59;5106815;28;20410;-62
2023/08/12 01:26:37;;;;;;;4.90;3.60;;;;;;;22.54;73.95;100484.59;5106808;28;20227;-62
2023/08/12 01:29:03;;;;;;;5.63;3.93;;;;;;;22.53;74.03;100492.38;5088469;28;20256;-61
2023/08/12 01:32:04;;;;;;;5.10;3.60;;;;;;;22.54;73.86;100496.09;5085768;28;20173;-61
2023/08/12 01:34:34;;;;;;;5.60;3.63;;;;;;;22.54;73.72;100511.31;5073666;28;20467;-62
2023/08/12 01:37:00;;;;;;;8.00;4.33;;;;;;;22.54;73.71;100513.38;5086677;28;20397;-62
2023/08/12 01:39:26;;;;;;;8.93;3.77;;;;;;;22.54;73.69;100510.50;5052050;28;20482;-62
2023/08/12 01:41:51;;;;;;;7.73;4.27;;;;;;;22.53;73.96;100508.84;5068509;28;20201;-62
2023/08/12 01:44:17;;;;;;;5.07;3.57;;;;;;;22.53;73.66;100509.66;5071769;28;20718;-62
2023/08/12 01:46:43;;;;;;;7.00;4.00;;;;;;;22.53;73.71;100508.84;5069680;28;20647;-62
2023/08/12 01:49:09;;;;;;;4.67;3.53;;;;;;;22.53;73.93;100505.97;5098771;28;20211;-62
2023/08/12 01:51:34;;;;;;;5.10;3.73;;;;;;;22.53;73.85;100501.03;5104863;28;20911;-61
2023/08/12 01:54:00;;;;;;;6.50;3.93;;;;;;;22.53;73.66;100501.03;5091315;28;20182;-61
2023/08/12 01:56:25;;;;;;;4.77;3.53;;;;;;;22.53;74.00;100489.50;5105346;28;20176;-62
2023/08/12 01:58:51;;;;;;;7.90;4.30;;;;;;;22.54;74.20;100496.94;5108367;28;20218;-62
2023/08/12 02:01:16;;;;;;;5.67;3.70;;;;;;;22.53;73.87;100486.63;5104156;28;20173;-62
2023/08/12 02:03:42;;;;;;;4.60;3.40;;;;;;;22.53;73.74;100492.38;5108300;28;20260;-62
2023/08/12 02:06:07;;;;;;;5.60;4.03;;;;;;;22.54;73.68;100491.19;5101907;28;20175;-62
2023/08/12 02:08:32;;;;;;;5.53;3.80;;;;;;;22.54;73.55;100498.97;5103096;28;20197;-62
2023/08/12 02:10:58;;;;;;;5.27;4.03;;;;;;;22.53;74.04;100492.38;5115687;27;20180;-62
2023/08/12 02:13:23;;;;;;;5.00;3.90;;;;;;;22.54;73.72;100501.84;5131737;27;20169;-63
2023/08/12 02:15:49;;;;;;;4.80;3.67;;;;;;;22.54;73.85;100494.06;5110121;27;20182;-62
2023/08/12 02:18:14;;;;;;;5.60;3.47;;;;;;;22.54;73.38;100496.94;5090479;28;20222;-62
2023/08/12 02:20:42;;;;;;;6.50;4.13;;;;;;;22.53;73.65;100489.50;5102734;28;20628;-62
2023/08/12 02:23:08;;;;;;;5.43;3.00;;;;;;;22.53;73.57;100483.75;5092081;28;20198;-61
2023/08/12 02:25:33;;;;;;;6.40;4.03;;;;;;;22.54;73.81;100484.59;5105486;28;20563;-61
2023/08/12 02:27:59;;;;;;;5.00;3.77;;;;;;;22.54;73.64;100481.72;5107176;28;20833;-61
2023/08/12 02:30:24;;;;;;;5.90;4.17;;;;;;;22.53;73.56;100482.94;5089094;28;20166;-61
2023/08/12 02:32:50;;;;;;;5.80;3.60;;;;;;;22.53;73.29;100478.00;5090021;28;20212;-61
2023/08/12 02:35:18;;;;;;;5.83;3.67;;;;;;;22.54;73.55;100479.66;5092619;28;20857;-62
2023/08/12 02:37:43;;;;;;;5.00;3.50;;;;;;;22.54;73.30;100467.31;5090057;28;20163;-62
2023/08/12 02:40:10;;;;;;;4.43;3.70;;;;;;;22.53;73.45;100469.38;5074545;28;20440;-62
2023/08/12 02:42:36;;;;;;;6.07;3.67;;;;;;;22.53;73.16;100466.50;5090852;28;20228;-62
2023/08/12 02:45:01;;;;;;;4.13;3.33;;;;;;;22.54;73.43;100467.31;5094513;28;20863;-61
2023/08/12 02:47:27;;;;;;;5.60;4.03;;;;;;;22.53;73.51;100457.84;5111530;28;20185;-62
2023/08/12 02:49:53;;;;;;;4.50;3.37;;;;;;;22.54;73.51;100459.53;5093042;28;20231;-62
2023/08/12 02:52:18;;;;;;;6.00;3.70;;;;;;;22.53;73.36;100457.84;5076785;28;20998;-62
2023/08/12 02:54:43;;;;;;;4.90;3.70;;;;;;;22.53;73.15;100454.16;5079698;28;20996;-62
2023/08/12 02:57:09;;;;;;;3.67;2.90;;;;;;;22.52;72.96;100447.59;5112255;27;20494;-62
2023/08/12 02:59:34;;;;;;;6.40;4.00;;;;;;;22.53;72.93;100449.22;5111099;28;20516;-62
2023/08/12 03:02:00;;;;;;;5.17;3.57;;;;;;;22.53;73.37;100443.47;5110818;28;20196;-62
2023/08/12 03:04:25;;;;;;;4.33;3.00;;;;;;;22.52;72.80;100447.59;5093768;28;20245;-62
2023/08/12 03:06:51;;;;;;;4.43;3.60;;;;;;;22.53;72.98;100469.38;5092876;28;20171;-62
2023/08/12 03:09:18;;;;;;;4.90;3.17;;;;;;;22.53;73.01;100466.50;5102127;27;20243;-62
2023/08/12 03:11:43;;;;;;;4.93;3.43;;;;;;;22.53;73.12;100465.69;5080982;28;20182;-62
2023/08/12 03:14:09;;;;;;;5.00;3.90;;;;;;;22.53;73.28;100471.44;5089593;28;20409;-62
2023/08/12 03:16:35;;;;;;;5.47;4.20;;;;;;;22.53;73.00;100478.00;5089115;28;20234;-62
2023/08/12 03:19:00;;;;;;;4.97;3.40;;;;;;;22.53;72.83;100483.75;5098058;28;20197;-61
2023/08/12 03:21:26;;;;;;;5.73;3.83;;;;;;;22.53;73.29;100459.94;5096865;27;20179;-62
2023/08/12 03:23:51;;;;;;;5.10;3.67;;;;;;;22.52;73.29;100441.81;5099944;27;20186;-62
2023/08/12 03:26:17;;;;;;;6.23;4.30;;;;;;;22.53;73.32;100442.66;5101450;28;20181;-62
2023/08/12 03:28:42;;;;;;;7.93;3.50;;;;;;;22.52;73.25;100444.69;5090144;28;20174;-62
2023/08/12 03:31:07;;;;;;;5.33;4.20;;;;;;;22.53;73.27;100443.47;5089977;28;20178;-61
2023/08/12 03:33:33;;;;;;;5.67;3.53;;;;;;;22.53;73.32;100423.31;5090801;28;20182;-62
2023/08/12 03:35:59;;;;;;;6.77;4.30;;;;;;;22.53;73.37;100425.41;5073304;28;20178;-62
2023/08/12 03:38:24;;;;;;;4.03;2.90;;;;;;;22.53;73.18;100431.16;5090201;28;20185;-61
2023/08/12 03:40:50;;;;;;;4.90;3.20;;;;;;;22.54;72.92;100429.91;5092380;28;20182;-61
2023/08/12 03:43:15;;;;;;;5.63;3.37;;;;;;;22.53;73.25;100443.47;5089713;28;20590;-62
2023/08/12 03:45:43;;;;;;;4.47;3.43;;;;;;;22.54;73.10;100441.44;5115543;27;20173;-62
2023/08/12 03:48:09;;;;;;;6.00;3.40;;;;;;;22.53;73.21;100448.41;5130875;27;20192;-63
2023/08/12 03:50:38;;;;;;;5.80;3.97;;;;;;;22.52;73.63;100456.22;5107280;27;20424;-62
2023/08/12 03:53:03;;;;;;;5.43;4.00;;;;;;;22.52;73.42;100456.22;5109356;28;20192;-61
2023/08/12 03:55:35;;;;;;;4.00;3.50;;;;;;;22.52;73.40;100441.81;5099928;28;20437;-62
2023/08/12 03:58:00;;;;;;;5.30;3.60;;;;;;;22.52;73.48;100441.81;5096136;27;20203;-62
2023/08/12 04:00:26;;;;;;;4.83;3.50;;;;;;;22.53;73.76;100431.16;5125496;27;21659;-61
2023/08/12 04:02:51;;;;;;;5.27;3.90;;;;;;;22.52;73.73;100436.06;5091319;28;20206;-62
2023/08/12 04:05:17;;;;;;;4.70;3.67;;;;;;;22.54;73.66;100448.03;5100405;28;20181;-64
2023/08/12 04:07:42;;;;;;;6.27;3.77;;;;;;;22.53;73.45;100462.81;5098297;28;20178;-62
2023/08/12 04:10:08;;;;;;;4.60;3.43;;;;;;;22.54;73.71;100465.28;5090562;28;20247;-62
2023/08/12 04:12:34;;;;;;;6.63;4.00;;;;;;;22.53;73.78;100457.84;5092066;27;20166;-61
2023/08/12 04:15:02;;;;;;;5.83;3.70;;;;;;;22.52;73.61;100453.34;5103122;28;20444;-62
2023/08/12 04:17:27;;;;;;;5.23;3.50;;;;;;;22.52;73.49;100435.25;5123845;27;20231;-61
2023/08/12 04:19:53;;;;;;;4.80;3.77;;;;;;;22.53;73.37;100429.06;5129074;27;20494;-62
2023/08/12 04:22:18;;;;;;;4.90;3.83;;;;;;;22.52;73.53;100427.44;5101583;27;20202;-61
2023/08/12 04:24:44;;;;;;;4.87;3.13;;;;;;;22.54;73.92;100433.63;5109252;28;20193;-61
2023/08/12 04:27:09;;;;;;;5.63;3.30;;;;;;;22.53;73.98;100431.97;5109253;28;20169;-62
2023/08/12 04:29:35;;;;;;;5.13;4.00;;;;;;;22.53;74.23;100431.97;5107002;28;20177;-62
2023/08/12 04:32:01;;;;;;;6.17;3.77;;;;;;;22.52;73.78;100424.56;5089408;28;20536;-62
2023/08/12 04:34:26;;;;;;;7.40;4.40;;;;;;;22.53;73.69;100429.06;5086079;28;20423;-62
2023/08/12 04:36:52;;;;;;;4.90;3.90;;;;;;;22.53;73.80;100431.97;5088531;28;20651;-61
2023/08/12 04:39:17;;;;;;;6.93;4.00;;;;;;;22.53;73.85;100420.44;5085737;28;20170;-61
2023/08/12 04:41:43;;;;;;;4.60;3.60;;;;;;;22.53;73.92;100422.53;5088816;28;20394;-62
2023/08/12 04:44:08;;;;;;;6.50;4.20;;;;;;;22.53;73.75;100420.44;5086765;28;20170;-61
2023/08/12 04:46:33;;;;;;;5.37;3.83;;;;;;;22.52;74.19;100415.94;5051958;28;20194;-62
2023/08/12 04:48:59;;;;;;;5.40;4.03;;;;;;;22.53;74.10;100417.56;5086968;28;20202;-62
2023/08/12 04:51:25;;;;;;;6.70;3.60;;;;;;;22.51;73.80;100405.66;5096521;27;20192;-62
2023/08/12 04:53:50;;;;;;;5.90;4.00;;;;;;;22.53;74.31;100414.69;5108283;28;20162;-63
2023/08/12 04:56:16;;;;;;;5.20;3.57;;;;;;;22.53;73.93;100420.44;5107798;28;20624;-62
2023/08/12 04:58:41;;;;;;;5.33;3.70;;;;;;;22.55;74.02;100418.00;5106490;28;20169;-62
2023/08/12 05:01:07;;;;;;;5.00;4.20;;;;;;;22.54;74.00;100415.53;5101753;28;20213;-62
2023/08/12 05:03:33;;;;;;;6.80;4.53;;;;;;;22.53;73.98;100414.69;5099352;28;20212;-61
2023/08/12 05:05:58;;;;;;;4.77;3.57;;;;;;;22.52;73.88;100410.16;5107857;28;20420;-62
2023/08/12 05:08:24;;;;;;;7.80;3.93;;;;;;;22.53;73.78;100411.81;5107733;28;20181;-62
2023/08/12 05:10:49;;;;;;;4.73;3.47;;;;;;;22.54;73.85;100419.25;5098244;28;20178;-62
2023/08/12 05:13:15;;;;;;;7.20;4.53;;;;;;;22.54;74.03;100413.50;5106083;28;20182;-61
2023/08/12 05:15:40;;;;;;;6.50;3.87;;;;;;;22.55;74.01;100411.41;5125146;27;20181;-62
2023/08/12 05:18:06;;;;;;;5.13;4.17;;;;;;;22.54;73.77;100410.59;5128607;27;20598;-62
2023/08/12 05:20:31;;;;;;;7.20;4.30;;;;;;;22.54;74.07;100407.72;5117128;27;20196;-62
2023/08/12 05:22:57;;;;;;;4.67;3.63;;;;;;;22.53;73.97;100406.06;5088145;28;20197;-61
2023/08/12 05:25:23;;;;;;;6.57;3.67;;;;;;;22.54;73.98;100406.91;5100709;28;20185;-62
2023/08/12 05:27:49;;;;;;;6.00;3.93;;;;;;;22.56;73.75;100407.31;5108605;28;20192;-62
2023/08/12 05:30:14;;;;;;;5.07;3.90;;;;;;;22.54;73.87;100419.25;5099660;28;20221;-62
2023/08/12 05:32:40;;;;;;;5.23;4.07;;;;;;;22.55;74.13;100418.00;5088253;28;20415;-62
2023/08/12 05:35:05;;;;;;;4.67;3.20;;;;;;;22.55;73.67;100423.75;5088333;28;20679;-63
2023/08/12 05:37:31;;;;;;;4.63;3.50;;;;;;;22.55;73.92;100418.00;5103951;28;20550;-62
2023/08/12 05:39:56;;;;;;;5.17;3.50;;;;;;;22.55;73.80;100420.88;5108434;28;20630;-61
2023/08/12 05:42:22;;;;;;;9.03;3.70;;;;;;;22.56;74.10;100424.56;5125291;28;20937;-62
2023/08/12 05:44:47;;;;;;;4.40;3.20;;;;;;;22.55;73.86;100418.00;5098142;28;20479;-62
2023/08/12 05:47:12;;;;;;;5.60;3.77;;;;;;;22.55;74.03;100423.75;5092422;28;20521;-62
2023/08/12 05:49:38;;;;;;;3.87;3.00;;;;;;;22.56;73.84;100421.69;5089206;28;20202;-62
2023/08/12 05:52:04;;;;;;;4.40;3.40;;;;;;;22.56;73.85;100424.56;5092105;28;20174;-62
2023/08/12 05:54:29;;;;;;;5.27;3.57;;;;;;;22.56;73.97;100428.28;5097058;28;20177;-63
2023/08/12 05:56:55;;;;;;;4.50;3.23;;;;;;;22.55;73.87;100422.94;5098887;28;20440;-62
2023/08/12 05:59:20;;;;;;;5.00;3.57;;;;;;;22.56;73.89;100431.16;5091417;28;20163;-62
2023/08/12 06:01:46;;;;;;;4.40;3.30;;;;;;;22.57;73.57;100423.38;5076298;28;20323;-61
2023/08/12 06:04:11;;;;;;;4.80;3.37;;;;;;;22.57;73.97;100420.47;5090750;28;20163;-62
2023/08/12 06:06:36;;;;;;;5.10;3.73;;;;;;;22.56;73.92;100422.53;5096440;28;20178;-61
2023/08/12 06:09:03;;;;;;;4.47;3.27;;;;;;;22.56;73.85;100424.56;5110629;27;20166;-62
2023/08/12 06:11:28;;;;;;;4.47;3.90;;;;;;;22.57;73.87;100432.00;5108035;27;20273;-63
2023/08/12 06:13:54;;;;;;;3.67;3.07;;;;;;;22.56;73.88;100424.56;5131453;27;20513;-63
2023/08/12 06:16:19;;;;;;;5.30;4.10;;;;;;;22.57;73.84;100429.13;5111515;27;20174;-62
2023/08/12 06:18:44;;;;;;;4.30;3.30;;;;;;;22.58;73.74;100420.06;5111026;28;20178;-62
2023/08/12 06:21:10;;;;;;;6.07;3.90;;;;;;;22.58;73.78;100417.19;5102873;28;20700;-62
2023/08/12 06:23:35;;;;;;;5.43;3.30;;;;;;;22.58;73.70;100410.63;5102767;27;20661;-62
2023/08/12 06:26:01;;;;;;;5.90;3.40;;;;;;;22.58;73.79;100408.53;5106487;28;20290;-61
2023/08/12 06:28:26;;;;;;;6.03;3.97;;;;;;;22.59;73.87;100418.84;5091387;28;20202;-61
2023/08/12 06:30:52;;;;;;;5.57;3.47;;;;;;;22.59;73.97;100424.59;5091007;28;20239;-63
2023/08/12 06:33:18;;;;;;;6.07;3.37;;;;;;;22.59;73.66;100423.75;5093706;28;20186;-63
2023/08/12 06:35:43;;;;;;;5.47;3.70;;;;;;;22.59;74.08;100423.75;5072847;28;20182;-63
2023/08/12 06:38:09;;;;;;;5.27;3.90;;;;;;;22.59;73.76;100420.88;5041928;28;20182;-63
2023/08/12 06:40:35;;;;;;;4.43;3.30;;;;;;;22.58;73.67;100414.28;5093359;28;20178;-63
2023/08/12 06:43:01;;;;;;;4.83;3.70;;;;;;;22.59;73.92;100418.00;5090870;28;20576;-63
2023/08/12 06:45:26;;;;;;;6.97;3.70;;;;;;;22.59;73.76;100418.00;5093327;28;20182;-63
2023/08/12 06:47:52;;;;;;;5.50;3.67;;;;;;;22.60;74.00;100411.03;5091129;28;20178;-63
2023/08/12 06:50:17;;;;;;;5.87;3.53;;;;;;;22.60;73.96;100414.75;5090722;28;20243;-62
2023/08/12 06:52:43;;;;;;;6.93;3.80;;;;;;;22.59;74.10;100418.00;5092828;28;20229;-63
2023/08/12 06:55:08;;;;;;;5.17;3.50;;;;;;;22.58;74.04;100422.94;5099726;28;20178;-63
2023/08/12 06:57:33;;;;;;;4.00;3.27;;;;;;;22.59;73.98;100418.84;5082484;28;20183;-63
2023/08/12 06:59:59;;;;;;;4.07;3.27;;;;;;;22.58;74.06;100420.06;5084383;28;20182;-62
2023/08/12 07:02:24;;;;;;;4.63;3.30;;;;;;;22.58;73.96;100413.50;5070572;28;20657;-63
2023/08/12 07:04:50;;;;;;;6.67;4.40;;;;;;;22.58;74.21;100420.06;5111070;27;20604;-63
2023/08/12 07:07:15;;;;;;;5.10;3.50;;;;;;;22.58;74.81;100422.94;5116519;27;20192;-62
2023/08/12 07:09:41;;;;;;;5.37;3.57;;;;;;;22.58;73.92;100411.41;5110160;28;20306;-64
2023/08/12 07:12:06;;;;;;;5.40;4.13;;;;;;;22.58;74.20;100417.19;5113354;27;20178;-63
2023/08/12 07:14:32;;;;;;;5.90;4.17;;;;;;;22.59;74.45;100421.72;5065487;28;20206;-63
2023/08/12 07:16:57;;;;;;;4.70;3.37;;;;;;;22.60;74.46;100422.53;5071919;28;20226;-63
2023/08/12 07:19:23;;;;;;;5.67;3.60;;;;;;;22.60;74.76;100425.41;5072452;28;20177;-63
2023/08/12 07:21:48;;;;;;;6.40;3.83;;;;;;;22.59;74.42;100447.63;5092238;28;20191;-63
2023/08/12 07:24:14;;;;;;;5.67;3.70;;;;;;;22.59;74.87;100439.00;5093374;28;20269;-63
2023/08/12 07:26:39;;;;;;;4.20;3.17;;;;;;;22.61;74.96;100444.31;5110660;28;20235;-62
2023/08/12 07:29:04;;;;;;;7.47;4.07;;;;;;;22.62;74.68;100434.47;5106423;28;20178;-63
2023/08/12 07:31:30;;;;;;;5.73;3.93;;;;;;;22.61;74.80;100433.66;5090871;28;20181;-64
2023/08/12 07:33:55;;;;;;;6.20;3.90;;;;;;;22.63;75.72;100436.94;5080431;28;21009;-64
2023/08/12 07:36:21;;;;;;;4.33;3.70;;;;;;;22.64;75.64;100427.09;5107464;28;20604;-63
2023/08/12 07:38:46;;;;;;;5.00;3.73;;;;;;;22.64;74.95;100421.34;5098620;28;20179;-64
2023/08/12 07:41:12;;;;;;;9.97;3.87;;;;;;;22.63;75.40;100422.53;5089423;28;20228;-63
2023/08/12 07:43:37;;;;;;;5.40;3.70;;;;;;;22.64;76.04;100418.47;5102413;28;20202;-63
2023/08/12 07:46:04;;;;;;;8.80;3.70;;;;;;;22.65;75.91;100425.00;5088756;28;20182;-62
2023/08/12 07:48:29;;;;;;;6.33;3.70;;;;;;;22.66;76.46;100418.84;5088341;28;20213;-63
2023/08/12 07:50:56;;;;;;;10.03;4.30;;;;;;;22.70;76.90;100424.63;5090680;28;20420;-64
2023/08/12 07:53:22;;;;;;;7.13;4.30;;;;;;;22.71;77.07;100414.75;5087979;28;20159;-62
2023/08/12 07:55:47;;;;;;;8.50;4.77;;;;;;;22.73;77.06;100412.31;5105353;27;20434;-63
2023/08/12 07:58:13;;;;;;;11.17;4.57;;;;;;;22.75;77.59;100416.44;5096027;28;20178;-62
2023/08/12 08:00:39;;;;;;;8.13;4.63;;;;;;;22.75;78.18;100404.06;5086277;28;20182;-63
2023/08/12 08:03:04;;;;;;;10.33;4.33;;;;;;;22.76;78.06;100397.91;5106405;28;20245;-65
2023/08/12 08:05:30;;;;;;;10.80;4.90;;;;;;;22.75;78.14;100407.78;5092243;28;20166;-63
2023/08/12 08:07:55;;;;;;;8.00;4.60;;;;;;;22.81;77.37;100400.41;5101764;28;20714;-63
2023/08/12 08:10:21;;;;;;;7.77;4.20;;;;;;;22.84;76.88;100402.47;5087236;28;20629;-64
2023/08/12 08:12:46;;;;;;;10.07;4.73;;;;;;;22.85;76.97;100391.75;5099656;28;20653;-64
2023/08/12 08:15:11;;;;;;;7.80;4.77;;;;;;;22.81;77.29;100388.88;5091566;28;20240;-64
2023/08/12 08:17:37;;;;;;;6.87;4.40;;;;;;;22.79;77.67;100388.47;5102097;27;20286;-64
2023/08/12 08:20:05;;;;;;;7.53;4.37;;;;;;;22.78;77.28;100386.81;5108901;28;20169;-63
2023/08/12 08:22:30;;;;;;;9.33;4.60;;;;;;;22.78;77.41;100392.56;5090674;28;20196;-64
2023/08/12 08:24:56;;;;;;;9.80;5.07;;;;;;;22.78;77.64;100388.88;5104628;27;20426;-63
2023/08/12 08:27:21;;;;;;;7.70;4.70;;;;;;;22.77;76.90;100407.38;5114288;27;20178;-62
2023/08/12 08:29:46;;;;;;;8.60;4.97;;;;;;;22.76;76.74;100400.81;5088711;28;20797;-62
2023/08/12 08:32:12;;;;;;;6.80;4.40;;;;;;;22.77;77.04;100407.38;5105519;28;20509;-63
2023/08/12 08:34:37;;;;;;;11.47;4.43;;;;;;;22.77;76.85;100395.88;5103842;28;20225;-64
2023/08/12 08:37:03;;;;;;;6.67;4.37;;;;;;;22.77;77.47;100398.75;5088068;28;20174;-64
2023/08/12 08:39:29;;;;;;;8.97;5.07;;;;;;;22.77;76.84;100396.69;5070678;28;20202;-64
2023/08/12 08:41:55;;;;;;;6.57;4.27;;;;;;;22.79;77.77;100393.41;5088781;28;20574;-64
2023/08/12 08:44:22;;;;;;;7.70;4.97;;;;;;;22.84;77.41;100381.50;5085194;28;20216;-64
2023/08/12 08:46:49;;;;;;;9.70;4.73;;;;;;;22.83;77.08;100383.53;5106521;28;20419;-63
2023/08/12 08:49:14;;;;;;;6.53;4.63;;;;;;;22.83;78.15;100400.00;5058308;28;20478;-64
2023/08/12 08:51:40;;;;;;;6.30;4.83;;;;;;;22.87;77.88;100410.28;5107391;28;20424;-63
2023/08/12 08:54:05;;;;;;;9.60;5.23;;;;;;;22.87;78.12;100418.91;5090593;27;20687;-64
2023/08/12 08:56:32;;;;;;;8.83;4.80;;;;;;;22.88;78.08;100428.38;5108029;28;20962;-64
2023/08/12 08:58:58;;;;;;;9.47;4.70;;;;;;;22.88;77.68;100419.75;5085437;28;20201;-62
2023/08/12 09:01:23;;;;;;;7.37;4.50;;;;;;;22.86;77.97;100422.19;5092784;28;20471;-64
2023/08/12 09:03:52;;;;;;;7.53;4.93;;;;;;;22.87;78.45;100430.44;5091760;28;20219;-64
2023/08/12 09:06:18;;;;;;;7.80;5.00;;;;;;;22.89;77.67;100428.00;5103117;28;20187;-64
2023/08/12 09:08:45;;;;;;;8.53;4.87;;;;;;;22.90;77.33;100418.13;5095396;28;20429;-63
2023/08/12 09:11:10;;;;;;;8.37;5.77;;;;;;;22.89;77.31;100419.34;5088589;28;20347;-63
2023/08/12 09:13:36;;;;;;;7.50;4.60;;;;;;;22.92;77.49;100412.75;5053663;28;20536;-64
2023/08/12 09:16:01;;;;;;;7.63;5.40;;;;;;;22.96;78.18;100416.47;5091203;28;20190;-64
2023/08/12 09:18:27;;;;;;;7.50;5.30;;;;;;;22.95;77.64;100408.25;5088004;28;20275;-64
2023/08/12 09:20:53;;;;;;;9.83;5.07;;;;;;;22.94;77.72;100397.97;5053033;28;20182;-64
2023/08/12 09:23:19;;;;;;;8.57;5.53;;;;;;;22.92;77.49;100397.56;5072420;28;20198;-64
2023/08/12 09:25:44;;;;;;;8.73;5.53;;;;;;;22.95;77.64;100391.78;5090593;28;20510;-65
2023/08/12 09:28:10;;;;;;;10.27;5.10;;;;;;;22.95;77.54;100397.56;5102020;28;20178;-64
2023/08/12 09:30:36;;;;;;;6.10;4.83;;;;;;;22.95;77.72;100397.56;5087609;28;20240;-64
2023/08/12 09:33:03;;;;;;;7.33;5.33;;;;;;;22.97;78.18;100405.78;5087266;28;20178;-63
2023/08/12 09:35:39;;;;;;;10.43;5.80;;;;;;;22.99;78.21;100414.84;5089316;28;20440;-64
2023/08/12 09:38:11;;;;;;;12.33;5.83;;;;;;;23.07;77.24;100417.31;5086472;28;20498;-63
2023/08/12 09:40:37;;;;;;;8.50;5.20;;;;;;;23.15;76.75;100418.97;5080842;28;21300;-64
2023/08/12 09:43:03;;;;;;;12.07;5.63;;;;;;;23.23;76.96;100408.31;5113240;28;20467;-64
2023/08/12 09:45:29;;;;;;;9.43;5.90;;;;;;;23.24;77.76;100401.31;5106620;28;20672;-62
2023/08/12 09:47:55;;;;;;;8.97;6.13;;;;;;;23.15;78.95;100395.94;5107184;28;20174;-63
2023/08/12 09:50:22;;;;;;;15.50;5.90;;;;;;;23.12;79.07;100390.97;5103028;28;20845;-63
2023/08/12 09:52:47;;;;;;;10.13;5.43;;;;;;;23.07;79.03;100379.03;5092952;28;20829;-63
2023/08/12 09:55:14;;;;;;;9.03;5.07;;;;;;;23.05;79.18;100384.41;5092509;28;20439;-62
2023/08/12 09:57:39;;;;;;;7.80;5.73;;;;;;;23.05;79.08;100393.88;5069418;28;20187;-64
2023/08/12 10:00:11;;;;;;;9.33;5.33;;;;;;;23.01;79.50;100398.78;5082386;28;20523;-63
2023/08/12 10:02:37;;;;;;;9.83;5.60;;;;;;;23.02;78.61;100397.56;5086977;28;20198;-63
2023/08/12 10:05:03;;;;;;;7.70;4.90;;;;;;;23.02;79.21;100386.03;5063527;28;20447;-64
2023/08/12 10:07:29;;;;;;;7.53;4.63;;;;;;;23.02;78.61;100391.78;5065692;28;20188;-63
2023/08/12 10:09:55;;;;;;;8.00;5.53;;;;;;;23.01;78.80;100395.91;5079232;28;20808;-63
2023/08/12 10:12:20;;;;;;;8.77;5.50;;;;;;;23.03;78.74;100425.13;5062582;28;20253;-64
2023/08/12 10:14:47;;;;;;;8.80;4.80;;;;;;;23.03;78.89;100422.22;5080298;28;20186;-61
2023/08/12 10:17:12;;;;;;;8.90;5.57;;;;;;;23.03;79.55;100433.75;5095426;28;20230;-63
2023/08/12 10:19:38;;;;;;;9.57;5.23;;;;;;;23.04;79.32;100463.38;5083295;28;20593;-63
2023/08/12 10:22:03;;;;;;;8.23;5.20;;;;;;;23.05;79.08;100486.03;5064863;28;20845;-63
2023/08/12 10:24:29;;;;;;;7.43;5.60;;;;;;;23.05;79.27;100488.91;5091435;28;20889;-63
2023/08/12 10:26:54;;;;;;;9.33;5.20;;;;;;;23.06;78.90;100481.91;5090613;28;20255;-64
2023/08/12 10:29:20;;;;;;;8.27;5.80;;;;;;;23.05;79.54;100482.31;5080611;28;20190;-63
2023/08/12 10:31:46;;;;;;;11.77;5.60;;;;;;;23.03;79.69;100474.06;5082036;28;20198;-63
2023/08/12 10:34:22;;;;;;;7.43;4.77;;;;;;;23.03;79.43;100465.44;5079256;28;20442;-64
2023/08/12 10:36:48;;;;;;;7.37;5.43;;;;;;;23.00;80.09;100437.47;5110218;28;20189;-63
2023/08/12 10:39:14;;;;;;;6.30;5.30;;;;;;;23.00;80.19;100446.09;5110455;28;20658;-63
2023/08/12 10:41:40;;;;;;;12.30;5.70;;;;;;;22.99;80.12;100430.06;5106571;27;20482;-63
2023/08/12 10:44:05;;;;;;;7.60;4.80;;;;;;;23.00;80.04;100428.84;5054737;28;21076;-63
2023/08/12 10:46:32;;;;;;;11.33;4.70;;;;;;;23.01;79.74;100421.84;5091584;28;20792;-64
2023/08/12 10:49:10;;;;;;;6.13;5.20;;;;;;;23.02;79.76;100414.84;5090574;28;20638;-63
2023/08/12 10:51:52;;;;;;;6.50;4.50;;;;;;;23.02;79.64;100425.56;5090307;28;20427;-64
2023/08/12 10:54:30;;;;;;;7.27;4.70;;;;;;;23.01;79.65;100418.13;5092719;28;20434;-65
2023/08/12 10:57:13;;;;;;;6.37;5.07;;;;;;;23.02;79.90;100411.94;5106565;28;20446;-63
2023/08/12 10:59:45;;;;;;;8.90;5.33;;;;;;;23.02;80.83;100414.84;5091902;28;20485;-64
2023/08/12 11:02:22;;;;;;;6.97;5.77;;;;;;;23.02;80.54;100417.72;5102092;27;20516;-62
2023/08/12 11:05:00;;;;;;;8.10;5.57;;;;;;;23.03;80.41;100428.00;5108854;28;20558;-64
2023/08/12 11:07:55;;;;;;;9.43;5.83;;;;;;;23.03;81.25;100432.94;5097238;28;20475;-63
2023/08/12 11:10:26;;;;;;;6.97;4.50;;;;;;;23.04;81.60;100434.59;5100913;28;20431;-63
2023/08/12 11:12:52;;;;;;;6.53;5.07;;;;;;;23.03;80.73;100430.06;5131185;27;20459;-64
2023/08/12 11:15:19;;;;;;;7.80;5.33;;;;;;;23.02;81.01;100437.88;5131333;27;20406;-64
2023/08/12 11:17:46;;;;;;;7.90;5.50;;;;;;;23.04;81.12;100446.94;5115545;27;20228;-63
2023/08/12 11:20:12;;;;;;;8.20;5.07;;;;;;;23.02;81.20;100449.38;5085168;28;20845;-64